Time;durP1;ratioP1;P1;durP2;ratioP2;P2;SDS_P1;SDS_P2;PMS_P1;PMS_P2;Temp;Humidity;BMP_temperature;BMP_pressure;BME280_temperature;BME280_humidity;BME280_pressure;Samples;Min_cycle;Max_cycle;Signal;HPM_P1;HPM_P2
2021/03/18 00:01:01;;;;;;;;;;;7.20;84.50;;;;;;4989412;28;20033;-57
2021/03/18 00:03:28;;;;;;;;;;;7.20;84.50;;;;;;4990973;28;19926;-56
2021/03/18 00:05:53;;;;;;;;;;;7.20;84.50;;;;;;5006208;28;20295;-56
2021/03/18 00:08:19;;;;;;;;;;;7.20;84.50;;;;;;4990204;28;19989;-59
2021/03/18 00:10:44;;;;;;;;;;;7.20;84.40;;;;;;4990059;28;19914;-58
2021/03/18 00:13:10;;;;;;;;;;;7.20;84.50;;;;;;4999521;28;19918;-56
2021/03/18 00:15:35;;;;;;;;;;;7.20;84.40;;;;;;4989993;28;19909;-57
2021/03/18 00:18:01;;;;;;;;;;;7.20;84.40;;;;;;4987376;28;20030;-59
2021/03/18 00:20:26;;;;;;;;;;;7.10;84.30;;;;;;5002270;28;19956;-57
2021/03/18 00:22:51;;;;;;;;;;;7.10;84.30;;;;;;4990516;28;20355;-56
2021/03/18 00:25:17;;;;;;;;;;;7.10;84.30;;;;;;4987666;28;19920;-58
2021/03/18 00:27:43;;;;;;;;;;;7.10;84.30;;;;;;5003818;28;19929;-56
2021/03/18 00:30:09;;;;;;;;;;;7.10;84.30;;;;;;4998270;28;19976;-56
2021/03/18 00:32:34;;;;;;;;;;;7.10;84.30;;;;;;5006973;28;19924;-57
2021/03/18 00:35:00;;;;;;;;;;;7.10;84.30;;;;;;4988777;28;19910;-58
2021/03/18 00:37:25;;;;;;;;;;;7.00;84.20;;;;;;4989111;28;19921;-56
2021/03/18 00:39:53;;;;;;;;;;;7.00;84.30;;;;;;5004045;28;20392;-56
2021/03/18 00:42:18;;;;;;;;;;;7.00;84.20;;;;;;4989844;28;19953;-56
2021/03/18 00:44:44;;;;;;;;;;;7.00;84.20;;;;;;4989965;28;19956;-58
2021/03/18 00:47:09;;;;;;;;;;;7.00;84.20;;;;;;4988635;28;19914;-56
2021/03/18 00:49:35;;;;;;;;;;;7.00;84.20;;;;;;4990292;28;20437;-57
2021/03/18 00:52:00;;;;;;;;;;;7.00;84.20;;;;;;4988483;28;19910;-58
2021/03/18 00:54:25;;;;;;;;;;;7.00;84.10;;;;;;5005029;28;20312;-57
2021/03/18 00:56:51;;;;;;;;;;;7.00;84.20;;;;;;4988540;28;19964;-56
2021/03/18 00:59:17;;;;;;;;;;;7.00;84.10;;;;;;4985623;28;20377;-58
2021/03/18 01:01:42;;;;;;;;;;;7.00;84.10;;;;;;4989382;28;19914;-58
2021/03/18 01:04:08;;;;;;;;;;;6.90;84.10;;;;;;4988644;28;19933;-59
2021/03/18 01:06:34;;;;;;;;;;;6.90;84.10;;;;;;4989177;28;20369;-56
2021/03/18 01:09:00;;;;;;;;;;;6.90;84.10;;;;;;5003545;28;19913;-58
2021/03/18 01:11:26;;;;;;;;;;;6.90;84.10;;;;;;4988760;28;20391;-57
2021/03/18 01:13:54;;;;;;;;;;;6.90;84.10;;;;;;4989113;28;19921;-57
2021/03/18 01:16:23;;;;;;;;;;;6.90;84.20;;;;;;4987510;28;19914;-57
2021/03/18 01:18:52;;;;;;;;;;;6.90;84.10;;;;;;5002692;28;19913;-56
2021/03/18 01:21:18;;;;;;;;;;;6.90;84.20;;;;;;4993904;28;19910;-57
2021/03/18 01:23:43;;;;;;;;;;;6.80;84.20;;;;;;4994047;28;19924;-56
2021/03/18 01:26:09;;;;;;;;;;;6.80;84.20;;;;;;5008623;28;19910;-58
2021/03/18 01:28:34;;;;;;;;;;;6.80;84.20;;;;;;4993686;28;20008;-56
2021/03/18 01:31:00;;;;;;;;;;;6.80;84.20;;;;;;5004365;28;20358;-57
2021/03/18 01:33:25;;;;;;;;;;;6.80;84.20;;;;;;5008300;28;20407;-55
2021/03/18 01:35:51;;;;;;;;;;;6.80;84.20;;;;;;4993609;28;19910;-58
2021/03/18 01:38:16;;;;;;;;;;;6.80;84.20;;;;;;5008465;28;19914;-57
2021/03/18 01:40:42;;;;;;;;;;;6.80;84.20;;;;;;4993320;28;19913;-56
2021/03/18 01:43:07;;;;;;;;;;;6.80;84.20;;;;;;4992319;28;20010;-56
2021/03/18 01:45:33;;;;;;;;;;;6.80;84.20;;;;;;4991656;28;20053;-56
2021/03/18 01:47:58;;;;;;;;;;;6.70;84.10;;;;;;5008768;28;19914;-57
2021/03/18 01:50:25;;;;;;;;;;;6.70;84.00;;;;;;4993531;28;20392;-59
2021/03/18 01:52:50;;;;;;;;;;;6.70;84.70;;;;;;4993317;28;19909;-57
2021/03/18 01:55:19;;;;;;;;;;;6.70;84.10;;;;;;4990125;28;20419;-56
2021/03/18 01:57:45;;;;;;;;;;;6.70;84.10;;;;;;5004512;28;19925;-58
2021/03/18 02:00:11;;;;;;;;;;;6.70;84.10;;;;;;5007981;28;20037;-57
2021/03/18 02:02:36;;;;;;;;;;;6.70;84.10;;;;;;4991072;28;20016;-58
2021/03/18 02:05:02;;;;;;;;;;;6.70;84.00;;;;;;5008181;28;20352;-57
2021/03/18 02:07:27;;;;;;;;;;;6.70;84.10;;;;;;4989028;28;19971;-57
2021/03/18 02:09:53;;;;;;;;;;;6.60;84.00;;;;;;4985259;28;20061;-56
2021/03/18 02:12:18;;;;;;;;;;;6.60;84.00;;;;;;4992116;28;20000;-57
2021/03/18 02:14:44;;;;;;;;;;;6.60;84.00;;;;;;5007950;28;20296;-57
2021/03/18 02:17:09;;;;;;;;;;;6.60;84.00;;;;;;5007693;28;19968;-58
2021/03/18 02:19:53;;;;;;;;;;;6.60;83.90;;;;;;5008328;28;19921;-58
2021/03/18 02:22:34;;;;;;;;;;;6.60;83.90;;;;;;4991001;28;20004;-56
2021/03/18 02:25:01;;;;;;;;;;;6.60;83.90;;;;;;5007559;28;20153;-58
2021/03/18 02:27:32;;;;;;;;;;;6.60;84.00;;;;;;5007984;28;19917;-57
2021/03/18 02:30:23;;;;;;;;;;;6.60;84.00;;;;;;4992348;28;19914;-56
2021/03/18 02:33:08;;;;;;;;;;;6.60;84.00;;;;;;5007021;28;19910;-57
2021/03/18 02:35:34;;;;;;;;;;;6.50;83.90;;;;;;4983812;28;20076;-57
2021/03/18 02:38:01;;;;;;;;;;;6.50;83.90;;;;;;5003793;28;19922;-56
2021/03/18 02:40:27;;;;;;;;;;;6.50;84.00;;;;;;5006558;28;19909;-56
2021/03/18 02:42:55;;;;;;;;;;;6.50;83.90;;;;;;5005575;28;19920;-57
2021/03/18 02:45:21;;;;;;;;;;;6.50;83.90;;;;;;4991999;28;19917;-58
2021/03/18 02:47:47;;;;;;;;;;;6.50;84.00;;;;;;5006212;28;19909;-56
2021/03/18 02:50:13;;;;;;;;;;;6.50;83.90;;;;;;5005975;28;19917;-58
2021/03/18 02:52:39;;;;;;;;;;;6.50;84.00;;;;;;5006034;28;19910;-58
2021/03/18 02:55:04;;;;;;;;;;;6.40;83.90;;;;;;5006607;28;19914;-58
2021/03/18 02:57:30;;;;;;;;;;;6.50;84.00;;;;;;5005084;28;19910;-58
2021/03/18 02:59:56;;;;;;;;;;;6.40;84.00;;;;;;5006538;28;20005;-59
2021/03/18 03:02:22;;;;;;;;;;;6.40;84.00;;;;;;5003230;28;19989;-58
2021/03/18 03:04:49;;;;;;;;;;;6.40;83.90;;;;;;5005470;28;19910;-58
2021/03/18 03:07:14;;;;;;;;;;;6.40;83.90;;;;;;5006249;28;20328;-56
2021/03/18 03:09:43;;;;;;;;;;;6.40;83.80;;;;;;4991816;28;19917;-57
2021/03/18 03:12:08;;;;;;;;;;;6.40;84.00;;;;;;4991458;28;19957;-56
2021/03/18 03:14:34;;;;;;;;;;;6.40;83.90;;;;;;5004623;28;20368;-57
2021/03/18 03:16:59;;;;;;;;;;;6.40;84.00;;;;;;5004469;28;20357;-56
2021/03/18 03:19:25;;;;;;;;;;;6.40;83.90;;;;;;5007353;28;20080;-56
2021/03/18 03:21:50;;;;;;;;;;;6.40;83.80;;;;;;5000874;28;19961;-57
2021/03/18 03:24:16;;;;;;;;;;;6.40;83.90;;;;;;4991509;28;19921;-56
2021/03/18 03:26:41;;;;;;;;;;;6.30;83.90;;;;;;5005590;28;20004;-56
2021/03/18 03:29:07;;;;;;;;;;;6.30;83.90;;;;;;5005106;28;19917;-57
2021/03/18 03:31:32;;;;;;;;;;;6.30;83.80;;;;;;4999615;28;20395;-57
2021/03/18 03:33:58;;;;;;;;;;;6.30;83.90;;;;;;5006622;28;19917;-56
2021/03/18 03:36:23;;;;;;;;;;;6.30;84.00;;;;;;5006265;28;19953;-58
2021/03/18 03:38:49;;;;;;;;;;;6.30;84.00;;;;;;4990126;28;20345;-57
2021/03/18 03:41:14;;;;;;;;;;;6.30;83.90;;;;;;5004119;28;19928;-57
2021/03/18 03:43:40;;;;;;;;;;;6.30;83.80;;;;;;4988356;28;19910;-59
2021/03/18 03:46:05;;;;;;;;;;;6.20;83.80;;;;;;4990477;28;20348;-56
2021/03/18 03:48:31;;;;;;;;;;;6.30;83.80;;;;;;5006571;28;19972;-56
2021/03/18 03:50:57;;;;;;;;;;;6.20;83.80;;;;;;5005803;28;19984;-57
2021/03/18 03:53:25;;;;;;;;;;;6.20;83.90;;;;;;4990078;28;20293;-58
2021/03/18 03:55:50;;;;;;;;;;;6.20;83.80;;;;;;5004632;28;19909;-56
2021/03/18 03:58:39;;;;;;;;;;;6.20;83.80;;;;;;4990965;28;19970;-57
2021/03/18 04:01:05;;;;;;;;;;;6.20;83.80;;;;;;4985519;28;20407;-57
2021/03/18 04:03:31;;;;;;;;;;;6.20;83.80;;;;;;5002790;28;20501;-57
2021/03/18 04:05:57;;;;;;;;;;;6.20;83.90;;;;;;4994754;28;19924;-58
2021/03/18 04:08:22;;;;;;;;;;;6.10;83.90;;;;;;5003709;28;19913;-57
2021/03/18 04:10:48;;;;;;;;;;;6.10;84.00;;;;;;4989147;28;20373;-56
2021/03/18 04:13:13;;;;;;;;;;;6.10;84.00;;;;;;4991126;28;19997;-56
2021/03/18 04:15:39;;;;;;;;;;;6.10;84.00;;;;;;5005269;28;19910;-56
2021/03/18 04:18:05;;;;;;;;;;;6.10;84.00;;;;;;4990731;28;20289;-56
2021/03/18 04:20:31;;;;;;;;;;;6.00;83.90;;;;;;5004156;28;20446;-57
2021/03/18 04:22:57;;;;;;;;;;;6.10;84.00;;;;;;4990099;28;20369;-56
2021/03/18 04:25:22;;;;;;;;;;;6.10;84.00;;;;;;5005605;28;19916;-58
2021/03/18 04:27:48;;;;;;;;;;;6.10;84.00;;;;;;5005692;28;19910;-57
2021/03/18 04:30:14;;;;;;;;;;;6.00;83.90;;;;;;5005310;28;19967;-56
2021/03/18 04:32:39;;;;;;;;;;;6.00;84.00;;;;;;5004309;28;19933;-57
2021/03/18 04:35:05;;;;;;;;;;;6.00;84.10;;;;;;5004446;28;19910;-56
2021/03/18 04:37:31;;;;;;;;;;;6.00;84.00;;;;;;4989076;28;19910;-57
2021/03/18 04:39:57;;;;;;;;;;;6.00;84.10;;;;;;4987824;28;19917;-57
2021/03/18 04:42:22;;;;;;;;;;;6.00;84.10;;;;;;4985360;28;19922;-57
2021/03/18 04:44:48;;;;;;;;;;;6.00;84.00;;;;;;5006788;28;19914;-58
2021/03/18 04:47:14;;;;;;;;;;;6.00;84.10;;;;;;5001760;28;19921;-57
2021/03/18 04:49:40;;;;;;;;;;;5.80;83.90;;;;;;4990448;28;19933;-56
2021/03/18 04:52:05;;;;;;;;;;;5.90;84.70;;;;;;5003550;28;20365;-59
2021/03/18 04:54:31;;;;;;;;;;;5.90;84.00;;;;;;4991810;28;20360;-58
2021/03/18 04:56:56;;;;;;;;;;;5.90;84.00;;;;;;5013427;28;19936;-57
2021/03/18 04:59:22;;;;;;;;;;;5.90;84.00;;;;;;4992604;28;19961;-57
2021/03/18 05:01:48;;;;;;;;;;;5.90;84.00;;;;;;5008025;28;19914;-59
2021/03/18 05:04:17;;;;;;;;;;;5.90;84.00;;;;;;5009282;28;19921;-56
2021/03/18 05:06:46;;;;;;;;;;;5.90;84.10;;;;;;4994487;28;19914;-56
2021/03/18 05:09:11;;;;;;;;;;;5.90;84.10;;;;;;5009009;28;19995;-58
2021/03/18 05:11:36;;;;;;;;;;;5.90;84.10;;;;;;4991288;28;20479;-56
2021/03/18 05:14:02;;;;;;;;;;;5.80;84.00;;;;;;4992825;28;19914;-58
2021/03/18 05:16:27;;;;;;;;;;;5.80;84.00;;;;;;5001841;28;19914;-56
2021/03/18 05:18:53;;;;;;;;;;;5.80;84.00;;;;;;5007843;28;19957;-59
2021/03/18 05:21:18;;;;;;;;;;;5.80;84.00;;;;;;4993003;28;19910;-56
2021/03/18 05:23:44;;;;;;;;;;;5.80;83.90;;;;;;5006234;28;19921;-56
2021/03/18 05:26:09;;;;;;;;;;;5.80;84.00;;;;;;5006845;28;19916;-57
2021/03/18 05:28:35;;;;;;;;;;;5.80;84.00;;;;;;4993855;28;19913;-56
2021/03/18 05:31:01;;;;;;;;;;;5.80;84.10;;;;;;4993510;28;19914;-58
2021/03/18 05:33:27;;;;;;;;;;;5.80;84.10;;;;;;4993791;28;19920;-57
2021/03/18 05:35:52;;;;;;;;;;;5.80;84.10;;;;;;4994014;28;19914;-58
2021/03/18 05:38:18;;;;;;;;;;;5.80;84.10;;;;;;5007415;28;20189;-57
2021/03/18 05:40:44;;;;;;;;;;;5.80;84.10;;;;;;4992089;28;19920;-58
2021/03/18 05:43:09;;;;;;;;;;;5.80;84.10;;;;;;4994001;28;19965;-56
2021/03/18 05:45:34;;;;;;;;;;;5.80;84.00;;;;;;4992138;28;19949;-56
2021/03/18 05:48:00;;;;;;;;;;;5.80;84.10;;;;;;4993708;28;20364;-56
2021/03/18 05:50:25;;;;;;;;;;;5.80;84.10;;;;;;5007317;28;19932;-58
2021/03/18 05:52:51;;;;;;;;;;;5.80;84.10;;;;;;4992200;28;20353;-58
2021/03/18 05:55:18;;;;;;;;;;;5.60;83.90;;;;;;4992351;28;20000;-57
2021/03/18 05:57:45;;;;;;;;;;;5.70;84.00;;;;;;4993201;28;19913;-56
2021/03/18 06:00:11;;;;;;;;;;;5.70;84.10;;;;;;4992096;28;19961;-57
2021/03/18 06:02:36;;;;;;;;;;;5.70;84.10;;;;;;4982924;28;19996;-59
2021/03/18 06:05:06;;;;;;;;;;;5.70;84.10;;;;;;5000480;28;19914;-58
2021/03/18 06:07:32;;;;;;;;;;;5.70;84.00;;;;;;4992411;28;19933;-58
2021/03/18 06:09:57;;;;;;;;;;;5.70;84.70;;;;;;5007309;28;20409;-56
2021/03/18 06:12:23;;;;;;;;;;;5.70;84.10;;;;;;5007547;28;19917;-56
2021/03/18 06:14:48;;;;;;;;;;;5.70;84.00;;;;;;4992723;28;19921;-58
2021/03/18 06:17:14;;;;;;;;;;;5.70;84.00;;;;;;4991660;28;19914;-58
2021/03/18 06:19:40;;;;;;;;;;;5.70;84.00;;;;;;4992019;28;19917;-57
2021/03/18 06:22:05;;;;;;;;;;;5.70;84.00;;;;;;4993238;28;20003;-56
2021/03/18 06:24:32;;;;;;;;;;;5.70;84.00;;;;;;4995375;28;19910;-58
2021/03/18 06:26:58;;;;;;;;;;;5.70;84.00;;;;;;5007720;28;19910;-58
2021/03/18 06:29:34;;;;;;;;;;;5.70;84.00;;;;;;4993677;28;19918;-57
2021/03/18 06:32:12;;;;;;;;;;;5.70;83.90;;;;;;4983016;28;19996;-58
2021/03/18 06:34:38;;;;;;;;;;;5.70;83.90;;;;;;4991423;28;19910;-58
2021/03/18 06:37:04;;;;;;;;;;;5.70;83.90;;;;;;5002997;28;19910;-56
2021/03/18 06:39:30;;;;;;;;;;;5.70;83.90;;;;;;5009926;28;19922;-57
2021/03/18 06:41:56;;;;;;;;;;;5.70;83.90;;;;;;5001275;28;20360;-57
2021/03/18 06:44:27;;;;;;;;;;;5.70;83.80;;;;;;4989306;28;19959;-56
2021/03/18 06:46:53;;;;;;;;;;;5.70;83.80;;;;;;5001126;28;19953;-56
2021/03/18 06:49:19;;;;;;;;;;;5.70;83.80;;;;;;4990903;28;19956;-57
2021/03/18 06:51:45;;;;;;;;;;;5.70;83.80;;;;;;5002036;28;19913;-56
2021/03/18 06:54:17;;;;;;;;;;;5.70;83.80;;;;;;5006246;28;19920;-57
2021/03/18 06:56:43;;;;;;;;;;;5.70;83.80;;;;;;4997275;28;19918;-57
2021/03/18 06:59:44;;;;;;;;;;;5.70;83.70;;;;;;5005969;28;19914;-57
2021/03/18 07:02:11;;;;;;;;;;;5.70;83.60;;;;;;5004707;28;20339;-57
2021/03/18 07:04:38;;;;;;;;;;;5.70;83.70;;;;;;4995297;28;20008;-58
2021/03/18 07:07:04;;;;;;;;;;;5.70;83.70;;;;;;5001544;28;20012;-57
2021/03/18 07:09:29;;;;;;;;;;;5.70;83.70;;;;;;4982791;28;20036;-56
2021/03/18 07:12:08;;;;;;;;;;;5.70;83.80;;;;;;4989690;28;19922;-59
2021/03/18 07:14:37;;;;;;;;;;;5.70;83.80;;;;;;4990175;28;19941;-56
2021/03/18 07:17:03;;;;;;;;;;;5.70;83.60;;;;;;5004839;28;20373;-57
2021/03/18 07:19:28;;;;;;;;;;;5.70;83.60;;;;;;5006019;28;19964;-57
2021/03/18 07:21:54;;;;;;;;;;;5.60;83.60;;;;;;5005495;28;20411;-56
2021/03/18 07:24:29;;;;;;;;;;;5.60;83.60;;;;;;5004980;28;19913;-57
2021/03/18 07:26:55;;;;;;;;;;;5.60;83.50;;;;;;4988824;28;19996;-58
2021/03/18 07:29:21;;;;;;;;;;;5.60;83.40;;;;;;4991483;28;19957;-57
2021/03/18 07:31:47;;;;;;;;;;;5.60;83.60;;;;;;5006607;28;19910;-57
2021/03/18 07:34:13;;;;;;;;;;;5.60;83.50;;;;;;5005804;28;19910;-57
2021/03/18 07:36:39;;;;;;;;;;;5.60;83.50;;;;;;4989624;28;20361;-59
2021/03/18 07:39:05;;;;;;;;;;;5.60;83.60;;;;;;4990591;28;20032;-58
2021/03/18 07:41:31;;;;;;;;;;;5.60;83.50;;;;;;4991292;28;20355;-58
2021/03/18 07:43:57;;;;;;;;;;;5.60;83.40;;;;;;5006125;28;19918;-58
2021/03/18 07:46:22;;;;;;;;;;;5.60;83.40;;;;;;4981065;28;19961;-57
2021/03/18 07:48:48;;;;;;;;;;;5.60;83.40;;;;;;5002872;28;20380;-57
2021/03/18 07:51:14;;;;;;;;;;;5.70;83.40;;;;;;5005933;28;19909;-59
2021/03/18 07:53:39;;;;;;;;;;;5.70;83.40;;;;;;5006172;28;20399;-56
2021/03/18 07:56:06;;;;;;;;;;;5.60;83.40;;;;;;5006032;28;19933;-57
2021/03/18 07:58:36;;;;;;;;;;;5.60;83.40;;;;;;5005944;28;19914;-56
2021/03/18 08:01:01;;;;;;;;;;;5.60;83.30;;;;;;4988257;28;19909;-57
2021/03/18 08:03:27;;;;;;;;;;;5.60;83.20;;;;;;4989381;28;20336;-58
2021/03/18 08:05:53;;;;;;;;;;;5.60;83.30;;;;;;5006407;28;20436;-57
2021/03/18 08:08:30;;;;;;;;;;;5.60;83.40;;;;;;4990679;28;20045;-58
2021/03/18 08:11:17;;;;;;;;;;;5.60;83.30;;;;;;4990843;28;20257;-57
2021/03/18 08:13:43;;;;;;;;;;;5.60;83.10;;;;;;4990317;28;20153;-58
2021/03/18 08:16:27;;;;;;;;;;;5.60;82.90;;;;;;4988514;28;19946;-56
2021/03/18 08:18:53;;;;;;;;;;;5.60;82.90;;;;;;4984288;28;20004;-56
2021/03/18 08:21:18;;;;;;;;;;;5.60;82.70;;;;;;4987597;28;20053;-57
2021/03/18 08:23:47;;;;;;;;;;;5.60;82.70;;;;;;4988560;28;19956;-56
2021/03/18 08:26:20;;;;;;;;;;;5.60;82.60;;;;;;4989413;28;19910;-57
2021/03/18 08:29:04;;;;;;;;;;;5.60;82.60;;;;;;4988627;28;19979;-56
2021/03/18 08:31:32;;;;;;;;;;;5.60;82.40;;;;;;5003120;28;19914;-56
2021/03/18 08:33:58;;;;;;;;;;;5.50;82.30;;;;;;4988252;28;20264;-57
2021/03/18 08:36:32;;;;;;;;;;;5.50;82.30;;;;;;5004016;28;19917;-56
2021/03/18 08:38:59;;;;;;;;;;;5.60;82.20;;;;;;4989190;28;20285;-58
2021/03/18 08:41:40;;;;;;;;;;;5.60;82.10;;;;;;5002110;28;19910;-58
2021/03/18 08:44:12;;;;;;;;;;;5.60;82.10;;;;;;5002756;28;20313;-56
2021/03/18 08:46:38;;;;;;;;;;;5.60;82.00;;;;;;4989544;28;20008;-57
2021/03/18 08:49:23;;;;;;;;;;;5.60;81.90;;;;;;5002617;28;20005;-56
2021/03/18 08:51:49;;;;;;;;;;;5.70;81.90;;;;;;4990207;28;19917;-57
2021/03/18 08:54:33;;;;;;;;;;;5.70;81.80;;;;;;4987650;28;19918;-58
2021/03/18 08:56:59;;;;;;;;;;;5.70;81.70;;;;;;4987209;28;19914;-57
2021/03/18 08:59:24;;;;;;;;;;;5.70;81.80;;;;;;4989579;28;20408;-57
2021/03/18 09:01:49;;;;;;;;;;;5.70;81.70;;;;;;4988897;28;19916;-57
2021/03/18 09:04:15;;;;;;;;;;;5.70;81.50;;;;;;4990222;28;19926;-56
2021/03/18 09:06:46;;;;;;;;;;;5.80;81.50;;;;;;4987284;28;19918;-57
2021/03/18 09:09:18;;;;;;;;;;;5.80;81.60;;;;;;4986745;28;20436;-57
2021/03/18 09:11:43;;;;;;;;;;;5.80;81.40;;;;;;4996696;28;20017;-56
2021/03/18 09:14:14;;;;;;;;;;;5.80;81.30;;;;;;4980306;28;20000;-56
2021/03/18 09:16:40;;;;;;;;;;;5.90;80.90;;;;;;4990800;28;19932;-59
2021/03/18 09:19:05;;;;;;;;;;;5.90;80.80;;;;;;4999206;28;20361;-59
2021/03/18 09:21:40;;;;;;;;;;;5.90;80.80;;;;;;4996919;28;20408;-57
2021/03/18 09:24:06;;;;;;;;;;;5.90;80.30;;;;;;4974768;28;20343;-58
2021/03/18 09:26:32;;;;;;;;;;;6.00;80.30;;;;;;4999608;28;19914;-59
2021/03/18 09:28:58;;;;;;;;;;;6.00;80.40;;;;;;4986045;28;19964;-56
2021/03/18 09:31:24;;;;;;;;;;;6.00;80.60;;;;;;4975844;28;20008;-56
2021/03/18 09:33:52;;;;;;;;;;;6.00;80.30;;;;;;4997004;28;20020;-56
2021/03/18 09:36:17;;;;;;;;;;;6.00;80.40;;;;;;4984717;28;19914;-58
2021/03/18 09:39:03;;;;;;;;;;;6.00;80.00;;;;;;4982440;28;20277;-58
2021/03/18 09:41:30;;;;;;;;;;;6.10;80.20;;;;;;4982763;28;19922;-56
2021/03/18 09:44:07;;;;;;;;;;;6.10;79.90;;;;;;4997859;28;19913;-59
2021/03/18 09:46:33;;;;;;;;;;;6.20;79.70;;;;;;4996122;28;19918;-56
2021/03/18 09:48:59;;;;;;;;;;;6.20;79.40;;;;;;5002179;28;19920;-59
2021/03/18 09:51:24;;;;;;;;;;;6.20;79.30;;;;;;4989291;28;20168;-59
2021/03/18 09:54:00;;;;;;;;;;;6.30;79.60;;;;;;4989311;28;19914;-57
2021/03/18 09:56:25;;;;;;;;;;;6.30;79.20;;;;;;4987604;28;19979;-57
2021/03/18 09:58:51;;;;;;;;;;;6.30;79.10;;;;;;4984213;28;20553;-56
2021/03/18 10:01:17;;;;;;;;;;;6.30;78.80;;;;;;4965576;28;20348;-59
2021/03/18 10:03:59;;;;;;;;;;;6.30;78.70;;;;;;4984708;28;20020;-58
2021/03/18 10:06:28;;;;;;;;;;;6.40;78.50;;;;;;5002199;28;19925;-58
2021/03/18 10:08:54;;;;;;;;;;;6.40;78.00;;;;;;4990245;28;19924;-58
2021/03/18 10:11:21;;;;;;;;;;;6.50;78.20;;;;;;4985361;28;19913;-56
2021/03/18 10:13:46;;;;;;;;;;;6.50;78.20;;;;;;4987936;28;19968;-56
2021/03/18 10:16:12;;;;;;;;;;;6.50;77.90;;;;;;5000641;28;19972;-58
2021/03/18 10:18:37;;;;;;;;;;;6.50;77.50;;;;;;5004025;28;19921;-59
2021/03/18 10:21:04;;;;;;;;;;;6.60;77.40;;;;;;5008681;28;19910;-58
2021/03/18 10:23:29;;;;;;;;;;;6.60;77.50;;;;;;4994013;28;19910;-56
2021/03/18 10:25:55;;;;;;;;;;;6.60;77.70;;;;;;4994347;28;20430;-55
2021/03/18 10:28:20;;;;;;;;;;;6.60;77.70;;;;;;5002218;28;20501;-56
2021/03/18 10:30:47;;;;;;;;;;;6.60;77.90;;;;;;5002131;28;19910;-56
2021/03/18 10:33:15;;;;;;;;;;;6.60;78.20;;;;;;4988697;28;19936;-57
2021/03/18 10:35:53;;;;;;;;;;;6.60;77.20;;;;;;4990311;28;20060;-58
2021/03/18 10:38:28;;;;;;;;;;;6.60;77.10;;;;;;4989850;28;19918;-56
2021/03/18 10:40:53;;;;;;;;;;;6.70;76.70;;;;;;4971540;28;19960;-56
2021/03/18 10:43:22;;;;;;;;;;;6.70;76.20;;;;;;4983932;28;19961;-59
2021/03/18 10:45:47;;;;;;;;;;;6.70;76.10;;;;;;4985976;28;19918;-59
2021/03/18 10:48:16;;;;;;;;;;;6.70;75.80;;;;;;4989190;28;20444;-59
2021/03/18 10:50:42;;;;;;;;;;;6.70;75.50;;;;;;5002488;28;19913;-56
2021/03/18 10:53:08;;;;;;;;;;;6.80;75.60;;;;;;4987907;28;20284;-58
2021/03/18 10:55:34;;;;;;;;;;;7.00;75.60;;;;;;5002103;28;20162;-58
2021/03/18 10:58:01;;;;;;;;;;;6.80;76.00;;;;;;4983802;28;19928;-56
2021/03/18 11:00:27;;;;;;;;;;;6.80;75.90;;;;;;5005193;28;20360;-58
2021/03/18 11:03:15;;;;;;;;;;;6.80;75.90;;;;;;4979416;28;20374;-58
2021/03/18 11:05:41;;;;;;;;;;;6.90;76.40;;;;;;4988879;28;19932;-58
2021/03/18 11:08:06;;;;;;;;;;;6.90;76.00;;;;;;4981063;28;19921;-57
2021/03/18 11:10:33;;;;;;;;;;;6.90;76.20;;;;;;5005179;28;19917;-58
2021/03/18 11:13:04;;;;;;;;;;;6.90;76.40;;;;;;4990185;28;19968;-58
2021/03/18 11:16:02;;;;;;;;;;;6.90;76.20;;;;;;4989719;28;19957;-58
2021/03/18 11:18:28;;;;;;;;;;;6.90;76.10;;;;;;4976270;28;19918;-58
2021/03/18 11:20:54;;;;;;;;;;;7.00;76.10;;;;;;4978175;28;19922;-57
2021/03/18 11:23:26;;;;;;;;;;;7.00;76.10;;;;;;5004728;28;19921;-57
2021/03/18 11:25:56;;;;;;;;;;;7.00;76.10;;;;;;5002948;28;20000;-57
2021/03/18 11:28:21;;;;;;;;;;;7.00;76.10;;;;;;4982043;28;19917;-57
2021/03/18 11:30:46;;;;;;;;;;;7.00;76.40;;;;;;4986810;28;20264;-56
2021/03/18 11:33:20;;;;;;;;;;;7.00;76.40;;;;;;4989273;28;20186;-57
2021/03/18 11:35:50;;;;;;;;;;;7.00;76.30;;;;;;4986624;28;19924;-58
2021/03/18 11:38:16;;;;;;;;;;;7.00;76.30;;;;;;4989180;28;19918;-58
2021/03/18 11:40:41;;;;;;;;;;;7.00;76.30;;;;;;4989568;28;20366;-58
2021/03/18 11:43:07;;;;;;;;;;;7.10;76.00;;;;;;4999016;28;19957;-58
2021/03/18 11:45:33;;;;;;;;;;;7.10;75.80;;;;;;4987576;28;19910;-59
2021/03/18 11:47:58;;;;;;;;;;;7.10;75.10;;;;;;4987634;28;20009;-58
2021/03/18 11:50:24;;;;;;;;;;;7.10;75.00;;;;;;4990964;28;20304;-57
2021/03/18 11:52:49;;;;;;;;;;;7.10;74.60;;;;;;5005898;28;19968;-57
2021/03/18 11:55:15;;;;;;;;;;;7.10;73.90;;;;;;4989477;28;20100;-58
2021/03/18 11:57:40;;;;;;;;;;;7.20;73.80;;;;;;4989155;28;19956;-58
2021/03/18 12:00:07;;;;;;;;;;;7.10;74.00;;;;;;4987813;28;19920;-57
2021/03/18 12:02:33;;;;;;;;;;;7.20;73.60;;;;;;4988483;28;19910;-58
2021/03/18 12:04:58;;;;;;;;;;;7.30;73.40;;;;;;4983055;28;20352;-57
2021/03/18 12:07:24;;;;;;;;;;;7.30;73.60;;;;;;4991350;28;19913;-57
2021/03/18 12:09:49;;;;;;;;;;;7.30;73.60;;;;;;4986685;28;19917;-56
2021/03/18 12:12:14;;;;;;;;;;;7.30;73.50;;;;;;4987027;28;20455;-57
2021/03/18 12:14:40;;;;;;;;;;;7.30;73.60;;;;;;4983609;28;19917;-59
2021/03/18 12:17:05;;;;;;;;;;;7.30;73.80;;;;;;4985103;28;19909;-57
2021/03/18 12:19:31;;;;;;;;;;;7.30;73.50;;;;;;4986695;28;19976;-58
2021/03/18 12:21:56;;;;;;;;;;;7.40;72.80;;;;;;4985041;28;19976;-57
2021/03/18 12:24:22;;;;;;;;;;;7.40;72.60;;;;;;4987954;28;19914;-56
2021/03/18 12:26:48;;;;;;;;;;;7.40;73.40;;;;;;4986991;28;20384;-58
2021/03/18 12:29:13;;;;;;;;;;;7.40;72.50;;;;;;4989869;28;19914;-57
2021/03/18 12:31:39;;;;;;;;;;;7.50;72.60;;;;;;4986862;28;20295;-59
2021/03/18 12:34:04;;;;;;;;;;;7.50;72.60;;;;;;4989208;28;19924;-56
2021/03/18 12:36:30;;;;;;;;;;;7.50;72.50;;;;;;4988602;28;20198;-58
2021/03/18 12:38:55;;;;;;;;;;;7.60;72.10;;;;;;4989330;28;19922;-58
2021/03/18 12:41:21;;;;;;;;;;;7.60;71.90;;;;;;4989546;28;19960;-58
2021/03/18 12:43:46;;;;;;;;;;;7.60;71.70;;;;;;4991808;28;20253;-58
2021/03/18 12:46:12;;;;;;;;;;;7.60;71.60;;;;;;4985260;28;19918;-56
2021/03/18 12:48:37;;;;;;;;;;;7.60;71.40;;;;;;4982234;28;20288;-57
2021/03/18 12:51:02;;;;;;;;;;;7.70;71.50;;;;;;4976958;28;19922;-58
2021/03/18 12:53:28;;;;;;;;;;;7.70;71.30;;;;;;4987999;28;19918;-56
2021/03/18 12:55:53;;;;;;;;;;;7.70;72.00;;;;;;4986948;28;19918;-58
2021/03/18 12:58:19;;;;;;;;;;;7.80;71.40;;;;;;4985452;28;19928;-57
2021/03/18 13:00:44;;;;;;;;;;;7.80;71.30;;;;;;4986939;28;19928;-57
2021/03/18 13:03:10;;;;;;;;;;;7.80;71.20;;;;;;4985209;28;20436;-59
2021/03/18 13:05:36;;;;;;;;;;;7.80;71.30;;;;;;4985436;28;19918;-57
2021/03/18 13:08:02;;;;;;;;;;;7.90;71.10;;;;;;4988001;28;19918;-56
2021/03/18 13:10:27;;;;;;;;;;;7.90;70.70;;;;;;4986957;28;20281;-57
2021/03/18 13:12:53;;;;;;;;;;;7.90;70.40;;;;;;4985969;28;19925;-56
2021/03/18 13:15:18;;;;;;;;;;;8.00;70.40;;;;;;4985436;28;19929;-57
2021/03/18 13:17:44;;;;;;;;;;;8.00;70.00;;;;;;5001428;28;20738;-59
2021/03/18 13:20:10;;;;;;;;;;;8.00;70.10;;;;;;4989736;28;19925;-58
2021/03/18 13:22:35;;;;;;;;;;;8.10;69.90;;;;;;4991356;28;20046;-57
2021/03/18 13:25:01;;;;;;;;;;;8.10;70.20;;;;;;4992006;28;19940;-58
2021/03/18 13:27:26;;;;;;;;;;;8.10;70.10;;;;;;5005875;28;19909;-56
2021/03/18 13:29:52;;;;;;;;;;;8.20;70.00;;;;;;4989295;28;19910;-58
2021/03/18 13:32:17;;;;;;;;;;;8.10;69.60;;;;;;4993075;28;19909;-59
2021/03/18 13:34:42;;;;;;;;;;;8.10;69.40;;;;;;4993753;28;19917;-58
2021/03/18 13:37:08;;;;;;;;;;;8.10;69.00;;;;;;4993224;28;20353;-56
2021/03/18 13:39:33;;;;;;;;;;;8.10;69.10;;;;;;4993251;28;19914;-57
2021/03/18 13:41:59;;;;;;;;;;;8.10;68.90;;;;;;4998178;28;19917;-57
2021/03/18 13:44:24;;;;;;;;;;;8.10;68.90;;;;;;4993066;28;20323;-58
2021/03/18 13:46:50;;;;;;;;;;;8.20;68.90;;;;;;4988664;28;19937;-57
2021/03/18 13:49:15;;;;;;;;;;;8.10;69.00;;;;;;4993190;28;19936;-57
2021/03/18 13:51:41;;;;;;;;;;;8.10;68.80;;;;;;4993417;28;19920;-58
2021/03/18 13:54:06;;;;;;;;;;;8.10;68.90;;;;;;4991701;28;19910;-58
2021/03/18 13:56:31;;;;;;;;;;;8.20;68.40;;;;;;4991614;28;19910;-58
2021/03/18 13:58:57;;;;;;;;;;;8.20;68.20;;;;;;4993284;28;19920;-56
2021/03/18 14:01:22;;;;;;;;;;;8.10;68.30;;;;;;4992551;28;19989;-57
2021/03/18 14:03:49;;;;;;;;;;;8.10;68.60;;;;;;5008184;28;19928;-57
2021/03/18 14:06:14;;;;;;;;;;;8.20;68.90;;;;;;4992376;28;19914;-58
2021/03/18 14:08:40;;;;;;;;;;;8.10;68.90;;;;;;4991804;28;19965;-57
2021/03/18 14:11:05;;;;;;;;;;;8.10;69.10;;;;;;4992787;28;19921;-59
2021/03/18 14:13:31;;;;;;;;;;;8.10;69.40;;;;;;5008363;28;20012;-59
2021/03/18 14:15:56;;;;;;;;;;;8.10;69.40;;;;;;4992301;28;19924;-58
2021/03/18 14:18:22;;;;;;;;;;;8.20;70.00;;;;;;4992824;28;19926;-56
2021/03/18 14:20:48;;;;;;;;;;;8.20;70.00;;;;;;4989852;28;19917;-56
2021/03/18 14:23:14;;;;;;;;;;;8.10;70.20;;;;;;4991445;28;20324;-56
2021/03/18 14:25:39;;;;;;;;;;;8.20;70.60;;;;;;5006365;28;19914;-57
2021/03/18 14:28:05;;;;;;;;;;;8.20;70.90;;;;;;5001998;28;19918;-57
2021/03/18 14:30:31;;;;;;;;;;;8.20;71.20;;;;;;4991176;28;19922;-60